Time;durP1;ratioP1;P1;durP2;ratioP2;P2;SDS_P1;SDS_P2;PMS_P1;PMS_P2;Temp;Humidity;BMP_temperature;BMP_pressure;BME280_temperature;BME280_humidity;BME280_pressure;Samples;Min_cycle;Max_cycle;Signal;HPM_P1;HPM_P2
2022/08/23 00:01:15;;;;;;;12.48;8.02;;;16.80;99.90;;;;;;5025510;28;20408;-70
2022/08/23 00:03:41;;;;;;;13.02;8.50;;;16.80;99.90;;;;;;5027895;28;20061;-70
2022/08/23 00:06:08;;;;;;;11.18;8.68;;;16.80;99.90;;;;;;5016628;28;20140;-71
2022/08/23 00:08:33;;;;;;;11.80;9.32;;;16.60;99.90;;;;;;5013512;28;20130;-70
2022/08/23 00:10:59;;;;;;;12.05;8.65;;;16.70;99.90;;;;;;5025811;28;20145;-69
2022/08/23 00:13:25;;;;;;;14.93;8.68;;;16.70;99.90;;;;;;5009729;28;20143;-70
2022/08/23 00:15:52;;;;;;;12.50;9.13;;;16.70;99.90;;;;;;5022986;28;20060;-70
2022/08/23 00:18:19;;;;;;;16.55;9.80;;;16.70;99.90;;;;;;5011755;28;20558;-70
2022/08/23 00:20:45;;;;;;;11.65;8.45;;;16.70;99.90;;;;;;5025807;28;20045;-69
2022/08/23 00:23:11;;;;;;;13.68;9.13;;;16.70;99.90;;;;;;5021238;28;20476;-71
2022/08/23 00:25:37;;;;;;;16.88;10.05;;;16.60;99.90;;;;;;5024250;28;20049;-70
2022/08/23 00:28:03;;;;;;;18.95;9.70;;;16.70;99.90;;;;;;5006486;28;20049;-69
2022/08/23 00:30:29;;;;;;;16.25;10.70;;;16.60;99.90;;;;;;5020184;28;20046;-70
2022/08/23 00:32:54;;;;;;;13.73;10.20;;;16.60;99.90;;;;;;5026642;28;20049;-70
2022/08/23 00:35:20;;;;;;;13.48;10.50;;;16.60;99.90;;;;;;5025844;28;20579;-70
2022/08/23 00:37:46;;;;;;;14.80;10.73;;;16.60;99.90;;;;;;5007809;28;20042;-70
2022/08/23 00:40:16;;;;;;;16.98;10.80;;;16.60;99.90;;;;;;5019971;28;20062;-70
2022/08/23 00:48:50;;;;;;;14.32;10.52;;;16.50;99.90;;;;;;5018441;28;20080;-70
2022/08/23 00:51:26;;;;;;;14.95;10.35;;;16.50;99.90;;;;;;5007713;28;20053;-70
2022/08/23 00:53:55;;;;;;;16.73;11.18;;;16.40;99.90;;;;;;5024692;28;20043;-70
2022/08/23 00:56:24;;;;;;;12.73;10.15;;;16.40;99.90;;;;;;5014131;28;20565;-70
2022/08/23 00:58:50;;;;;;;16.17;11.65;;;16.40;99.90;;;;;;5019150;28;20045;-70
2022/08/23 01:01:16;;;;;;;16.33;10.85;;;16.40;99.90;;;;;;5022243;28;20049;-70
2022/08/23 01:03:48;;;;;;;14.45;10.80;;;16.30;99.90;;;;;;5022645;28;20042;-70
2022/08/23 01:06:38;;;;;;;14.45;10.75;;;16.30;99.90;;;;;;5017780;28;20072;-71
2022/08/23 01:09:11;;;;;;;12.40;9.40;;;16.20;99.90;;;;;;5018382;28;20091;-70
2022/08/23 01:12:03;;;;;;;11.88;9.25;;;16.20;99.90;;;;;;5023502;28;20049;-70
2022/08/23 01:14:37;;;;;;;11.65;10.43;;;16.10;99.90;;;;;;5026278;28;20049;-70
2022/08/23 01:17:15;;;;;;;12.65;10.25;;;16.10;99.90;;;;;;5015623;28;20041;-70
2022/08/23 01:19:55;;;;;;;16.95;12.07;;;16.00;99.90;;;;;;5027325;28;20037;-69
2022/08/23 01:22:53;;;;;;;13.48;9.98;;;16.10;99.90;;;;;;5030850;28;20053;-70
2022/08/23 01:25:22;;;;;;;16.45;11.32;;;15.90;99.90;;;;;;5023025;28;20042;-70
2022/08/23 01:27:48;;;;;;;15.98;11.50;;;15.90;99.90;;;;;;5013015;28;20047;-71
2022/08/23 01:30:18;;;;;;;16.85;12.57;;;15.90;99.90;;;;;;5025674;28;20748;-70
2022/08/23 01:32:48;;;;;;;15.73;11.52;;;15.90;99.90;;;;;;5025263;28;20052;-70
2022/08/23 01:35:15;;;;;;;18.55;12.93;;;15.90;99.90;;;;;;5025178;28;20389;-70
2022/08/23 01:37:42;;;;;;;14.18;12.05;;;15.80;99.90;;;;;;5008855;28;20136;-70
2022/08/23 01:40:08;;;;;;;13.10;11.32;;;15.80;99.90;;;;;;5032491;28;20187;-70
2022/08/23 01:42:34;;;;;;;15.23;11.30;;;15.80;99.90;;;;;;5029784;28;20116;-70
2022/08/23 01:45:00;;;;;;;22.83;13.55;;;15.80;99.90;;;;;;5031248;28;20048;-70
2022/08/23 01:47:25;;;;;;;16.30;13.95;;;15.90;99.90;;;;;;5012892;28;20040;-70
2022/08/23 01:49:51;;;;;;;17.98;13.13;;;15.90;99.90;;;;;;5046380;28;20048;-70
2022/08/23 01:52:18;;;;;;;16.10;12.30;;;15.90;99.90;;;;;;5049615;28;20048;-70
2022/08/23 01:54:44;;;;;;;16.55;12.57;;;15.90;99.90;;;;;;5031060;28;20132;-70
2022/08/23 01:57:10;;;;;;;16.42;12.35;;;15.90;99.90;;;;;;5035858;28;20475;-70
2022/08/23 01:59:36;;;;;;;14.60;12.23;;;15.80;99.90;;;;;;5029239;28;20365;-70
2022/08/23 02:02:02;;;;;;;16.88;12.95;;;15.80;99.90;;;;;;5048064;28;20485;-70
2022/08/23 02:04:29;;;;;;;16.75;12.48;;;15.80;99.90;;;;;;5049174;28;20048;-70
2022/08/23 02:06:54;;;;;;;16.38;12.77;;;15.80;99.90;;;;;;5034754;28;20550;-70
2022/08/23 02:09:21;;;;;;;21.20;13.20;;;15.70;99.90;;;;;;5047049;28;20135;-71
2022/08/23 02:11:48;;;;;;;14.32;12.65;;;15.70;99.90;;;;;;5046509;28;20492;-71
2022/08/23 02:14:17;;;;;;;13.45;11.43;;;15.70;99.90;;;;;;5046444;28;20040;-70
2022/08/23 02:16:47;;;;;;;15.40;12.45;;;15.60;99.90;;;;;;5032629;28;20526;-70
2022/08/23 02:19:14;;;;;;;16.42;12.85;;;15.70;99.90;;;;;;5044344;28;20045;-70
2022/08/23 02:21:40;;;;;;;15.43;12.82;;;15.70;99.90;;;;;;5044981;28;20589;-70
2022/08/23 02:24:11;;;;;;;16.42;12.75;;;15.70;99.90;;;;;;5044157;28;20060;-70
2022/08/23 02:26:42;;;;;;;17.63;11.85;;;15.70;99.90;;;;;;5014166;28;20095;-70
2022/08/23 02:29:08;;;;;;;;;;;15.70;99.90;;;;;;5029483;28;20056;-70
2022/08/23 02:31:34;;;;;;;19.30;11.90;;;15.70;99.90;;;;;;5048295;28;19921;-70
2022/08/23 02:34:00;;;;;;;13.45;11.27;;;15.70;99.90;;;;;;5046282;28;20567;-70
2022/08/23 02:36:27;;;;;;;18.95;13.20;;;15.70;99.90;;;;;;5036942;28;20563;-70
2022/08/23 02:38:53;;;;;;;19.75;13.40;;;15.70;99.90;;;;;;5042644;28;20083;-70
2022/08/23 02:41:19;;;;;;;19.13;13.65;;;15.80;99.90;;;;;;5045319;28;20069;-70
2022/08/23 02:43:45;;;;;;;20.73;12.63;;;15.80;99.90;;;;;;5044933;28;20041;-70
2022/08/23 02:46:11;;;;;;;20.95;12.90;;;15.80;99.90;;;;;;5019108;28;20053;-71
2022/08/23 02:48:37;;;;;;;17.95;12.90;;;15.80;99.90;;;;;;5037685;28;20048;-71
2022/08/23 02:51:06;;;;;;;14.27;11.80;;;15.80;99.90;;;;;;5046101;28;20056;-71
2022/08/23 02:53:32;;;;;;;14.73;11.43;;;15.70;99.90;;;;;;5027642;28;20041;-70
2022/08/23 02:55:58;;;;;;;17.13;12.45;;;15.70;99.90;;;;;;5043499;28;20048;-70
2022/08/23 02:58:25;;;;;;;16.15;12.63;;;15.70;99.90;;;;;;5025870;28;20052;-71
2022/08/23 03:00:52;;;;;;;14.48;11.80;;;15.80;99.90;;;;;;5005718;28;20049;-71
2022/08/23 03:03:19;;;;;;;17.75;11.00;;;15.70;99.90;;;;;;5022415;28;20045;-71
2022/08/23 03:05:45;;;;;;;12.30;11.00;;;15.70;99.90;;;;;;5023202;28;20049;-71
2022/08/23 03:08:11;;;;;;;16.67;11.32;;;15.70;99.90;;;;;;5025710;28;20107;-70
2022/08/23 03:10:40;;;;;;;14.73;10.93;;;15.60;99.90;;;;;;5038448;28;20044;-70
2022/08/23 03:13:06;;;;;;;14.23;10.98;;;15.60;99.90;;;;;;5026694;28;20052;-70
2022/08/23 03:15:32;;;;;;;14.85;10.45;;;15.60;99.90;;;;;;5024587;28;20033;-70
2022/08/23 03:17:58;;;;;;;12.95;10.50;;;15.50;99.90;;;;;;5032235;28;20103;-70
2022/08/23 03:20:24;;;;;;;14.38;10.32;;;15.50;99.90;;;;;;5026963;28;20081;-70
2022/08/23 03:22:50;;;;;;;11.80;9.40;;;15.50;99.90;;;;;;5046678;28;20052;-70
2022/08/23 03:25:16;;;;;;;11.30;10.10;;;15.50;99.90;;;;;;5043483;28;20506;-70
2022/08/23 03:27:42;;;;;;;14.32;10.93;;;15.50;99.90;;;;;;5030131;28;20063;-71
2022/08/23 03:30:08;;;;;;;13.13;10.50;;;15.50;99.90;;;;;;5045244;28;20056;-71
2022/08/23 03:32:34;;;;;;;16.67;11.25;;;15.50;99.90;;;;;;5044560;28;20056;-70
2022/08/23 03:34:59;;;;;;;14.52;11.38;;;15.50;99.90;;;;;;5028182;28;20044;-71
2022/08/23 03:37:25;;;;;;;13.88;10.88;;;15.40;99.90;;;;;;5031785;28;20587;-69
2022/08/23 03:39:51;;;;;;;11.15;9.35;;;15.40;99.90;;;;;;5024368;28;20056;-70
2022/08/23 03:42:17;;;;;;;11.90;9.50;;;15.30;99.90;;;;;;5041890;28;20057;-70
2022/08/23 03:44:44;;;;;;;10.75;9.65;;;15.30;99.90;;;;;;5045177;28;20189;-69
2022/08/23 03:47:09;;;;;;;15.02;10.05;;;15.20;99.90;;;;;;5010781;28;20052;-69
2022/08/23 03:49:36;;;;;;;11.88;9.48;;;15.20;99.90;;;;;;5043617;28;20049;-71
2022/08/23 03:52:03;;;;;;;9.65;7.85;;;15.10;99.90;;;;;;5042937;28;20049;-70
2022/08/23 03:54:28;;;;;;;9.05;7.30;;;15.10;99.90;;;;;;5024336;28;20476;-71
2022/08/23 03:57:04;;;;;;;7.80;6.90;;;15.00;99.90;;;;;;5030676;28;20041;-70
2022/08/23 03:59:32;;;;;;;7.68;6.95;;;15.00;99.90;;;;;;5047200;28;20049;-70
2022/08/23 04:01:58;;;;;;;9.23;6.65;;;14.90;99.90;;;;;;5048101;28;20052;-70
2022/08/23 04:04:24;;;;;;;10.73;8.02;;;14.90;99.90;;;;;;5047333;28;20109;-71
2022/08/23 04:06:49;;;;;;;9.57;8.57;;;14.80;99.90;;;;;;5013216;28;20452;-71
2022/08/23 04:09:16;;;;;;;9.18;8.20;;;14.80;99.90;;;;;;5025008;28;20049;-71
2022/08/23 04:11:42;;;;;;;10.80;7.93;;;14.90;99.90;;;;;;5006551;28;20520;-69
2022/08/23 04:14:08;;;;;;;8.07;6.93;;;14.90;99.90;;;;;;5042738;28;20037;-69
2022/08/23 04:16:37;;;;;;;10.98;6.60;;;14.80;99.90;;;;;;5030077;28;20144;-70
2022/08/23 04:19:08;;;;;;;10.80;7.85;;;14.70;99.90;;;;;;5020183;28;20045;-70
2022/08/23 04:21:36;;;;;;;9.33;8.27;;;14.80;99.90;;;;;;5037976;28;20045;-70
2022/08/23 04:24:02;;;;;;;11.65;9.10;;;14.80;99.90;;;;;;5047502;28;20419;-70
2022/08/23 04:26:28;;;;;;;11.07;9.70;;;14.80;99.90;;;;;;5036809;28;20032;-70
2022/08/23 04:28:54;;;;;;;11.35;9.13;;;14.80;99.90;;;;;;5039327;28;20048;-70
2022/08/23 04:31:20;;;;;;;12.15;9.48;;;14.80;99.90;;;;;;5045426;28;20107;-70
2022/08/23 04:33:46;;;;;;;12.75;10.45;;;14.80;99.90;;;;;;5045268;28;20037;-70
2022/08/23 04:36:12;;;;;;;13.48;10.02;;;14.80;99.90;;;;;;5041413;28;20068;-70
2022/08/23 04:38:38;;;;;;;12.77;9.90;;;14.90;99.90;;;;;;5024948;28;20076;-70
2022/08/23 04:43:49;;;;;;;14.40;10.70;;;14.90;99.90;;;;;;5046646;28;20423;-70
2022/08/23 04:46:15;;;;;;;12.80;9.55;;;14.90;99.90;;;;;;5020563;28;20080;-71
2022/08/23 04:48:43;;;;;;;10.60;9.43;;;14.90;99.90;;;;;;5040434;28;20041;-70
2022/08/23 04:51:09;;;;;;;11.00;8.18;;;14.90;99.90;;;;;;5041950;28;20056;-70
2022/08/23 04:53:35;;;;;;;12.73;10.40;;;14.80;99.90;;;;;;5045121;28;21337;-70
2022/08/23 04:56:03;;;;;;;13.75;10.43;;;14.90;99.90;;;;;;5044744;28;20079;-70
2022/08/23 04:58:30;;;;;;;11.32;10.15;;;14.90;99.90;;;;;;5030138;28;20071;-70
2022/08/23 05:00:59;;;;;;;17.58;11.20;;;14.90;99.90;;;;;;5046887;28;20053;-70
2022/08/23 05:03:25;;;;;;;18.25;12.02;;;15.00;99.90;;;;;;5027657;28;20053;-70
2022/08/23 05:05:52;;;;;;;15.25;12.63;;;15.00;99.90;;;;;;5045642;28;20359;-70
2022/08/23 05:08:18;;;;;;;14.40;12.88;;;15.00;99.90;;;;;;5028895;28;20405;-70
2022/08/23 05:10:45;;;;;;;17.20;13.45;;;15.10;99.90;;;;;;5042952;28;20052;-70
2022/08/23 05:13:12;;;;;;;23.92;14.00;;;15.20;99.90;;;;;;5033785;28;20047;-70
2022/08/23 05:15:38;;;;;;;17.55;14.18;;;15.30;99.90;;;;;;5012101;28;20401;-70
2022/08/23 05:18:04;;;;;;;19.92;14.40;;;15.30;99.90;;;;;;5027672;28;20045;-70
2022/08/23 05:20:30;;;;;;;22.23;15.05;;;15.40;99.90;;;;;;5040655;28;20042;-70
2022/08/23 05:22:56;;;;;;;22.33;14.32;;;15.40;99.90;;;;;;5044260;28;20049;-70
2022/08/23 05:25:21;;;;;;;19.83;14.90;;;15.40;99.90;;;;;;5027038;28;20052;-70
2022/08/23 05:27:47;;;;;;;20.27;15.02;;;15.50;99.90;;;;;;5010688;28;20072;-70
2022/08/23 05:30:13;;;;;;;14.93;12.60;;;15.50;99.90;;;;;;5025513;28;20054;-70
2022/08/23 05:32:39;;;;;;;14.82;11.95;;;15.50;99.90;;;;;;5044194;28;20037;-71
2022/08/23 05:35:05;;;;;;;14.68;11.73;;;15.50;99.90;;;;;;5044078;28;20149;-70
2022/08/23 05:37:32;;;;;;;13.35;11.07;;;15.60;99.90;;;;;;5028774;28;20064;-69
2022/08/23 05:39:58;;;;;;;13.85;10.85;;;15.60;99.90;;;;;;5044343;28;20627;-70
2022/08/23 05:42:23;;;;;;;19.75;11.98;;;15.60;99.90;;;;;;5044988;28;20051;-70
2022/08/23 05:44:49;;;;;;;12.80;10.77;;;15.70;99.90;;;;;;5051617;28;20049;-70
2022/08/23 05:47:16;;;;;;;19.23;13.43;;;15.70;99.90;;;;;;5031284;28;20179;-70
2022/08/23 05:49:42;;;;;;;16.58;13.23;;;15.80;99.90;;;;;;5047377;28;20484;-71
2022/08/23 05:52:10;;;;;;;20.17;13.02;;;15.80;99.90;;;;;;5046430;28;20049;-70
2022/08/23 05:54:37;;;;;;;18.67;12.75;;;15.80;99.90;;;;;;5051215;28;20049;-71
2022/08/23 05:57:03;;;;;;;15.40;12.85;;;15.90;99.90;;;;;;5032593;28;20487;-71
2022/08/23 05:59:29;;;;;;;18.45;13.90;;;16.00;99.90;;;;;;5010876;28;20037;-70
2022/08/23 06:01:56;;;;;;;17.17;14.55;;;16.20;99.90;;;;;;5032243;28;20049;-71
2022/08/23 06:04:22;;;;;;;19.15;16.33;;;16.40;99.90;;;;;;5045018;28;20052;-72
2022/08/23 06:06:48;;;;;;;19.38;14.35;;;16.50;99.90;;;;;;5035436;28;20052;-72
2022/08/23 06:09:15;;;;;;;22.55;16.63;;;16.60;99.90;;;;;;5011080;28;20152;-71
2022/08/23 06:11:44;;;;;;;17.27;14.80;;;16.70;99.90;;;;;;5046942;28;20056;-71
2022/08/23 06:14:09;;;;;;;19.80;16.02;;;16.80;99.90;;;;;;5044367;28;20041;-72
2022/08/23 06:16:40;;;;;;;17.80;15.05;;;16.80;99.90;;;;;;5015537;28;20532;-72
2022/08/23 06:19:07;;;;;;;18.95;15.00;;;16.80;99.90;;;;;;5027073;28;20067;-71
2022/08/23 06:21:33;;;;;;;21.70;15.75;;;16.80;99.90;;;;;;5024398;28;20558;-72
2022/08/23 06:24:00;;;;;;;18.83;15.13;;;16.90;99.90;;;;;;5028706;28;20052;-71
2022/08/23 06:26:31;;;;;;;17.13;14.40;;;17.00;99.90;;;;;;5034227;28;20615;-72
2022/08/23 06:29:01;;;;;;;20.27;15.05;;;17.20;99.90;;;;;;5041262;28;20041;-72
2022/08/23 06:31:46;;;;;;;19.60;16.75;;;17.30;99.90;;;;;;5043068;28;20068;-72
2022/08/23 06:34:32;;;;;;;18.83;16.05;;;17.40;99.90;;;;;;5039954;28;20076;-72
2022/08/23 06:37:01;;;;;;;23.20;16.73;;;17.60;99.90;;;;;;5029721;28;20387;-72
2022/08/23 06:39:30;;;;;;;18.48;16.23;;;17.70;99.90;;;;;;5024245;28;20063;-72
2022/08/23 06:42:23;;;;;;;19.02;15.77;;;17.80;99.90;;;;;;5022111;28;20140;-72
2022/08/23 06:44:49;;;;;;;20.08;16.05;;;17.90;99.90;;;;;;5000633;28;20068;-72
2022/08/23 06:47:15;;;;;;;17.02;14.93;;;18.10;99.90;;;;;;5010157;28;20042;-71
2022/08/23 06:49:41;;;;;;;15.45;13.70;;;18.20;99.90;;;;;;5026856;28;20073;-72
2022/08/23 06:52:08;;;;;;;15.20;13.05;;;18.20;99.90;;;;;;5008869;28;20103;-72
2022/08/23 06:54:34;;;;;;;15.43;13.05;;;18.30;99.90;;;;;;5021921;28;20175;-72
2022/08/23 06:57:01;;;;;;;16.30;12.70;;;18.40;99.90;;;;;;5010261;28;20037;-72
2022/08/23 06:59:27;;;;;;;17.35;13.00;;;18.50;99.90;;;;;;5000963;28;20509;-72
2022/08/23 07:01:54;;;;;;;18.25;12.52;;;18.50;99.90;;;;;;5023400;28;20041;-72
2022/08/23 07:04:23;;;;;;;17.48;11.48;;;18.60;99.90;;;;;;5026711;28;20446;-72
2022/08/23 07:06:49;;;;;;;15.45;11.43;;;18.70;99.90;;;;;;5012770;28;20068;-72
2022/08/23 07:09:15;;;;;;;11.98;10.63;;;18.80;99.90;;;;;;5016851;28;20092;-72
2022/08/23 07:11:41;;;;;;;15.23;10.73;;;18.90;99.90;;;;;;5016682;28;20060;-72
2022/08/23 07:14:10;;;;;;;13.23;10.05;;;19.00;99.90;;;;;;5011444;28;20049;-72
2022/08/23 07:16:48;;;;;;;11.27;10.10;;;19.10;99.90;;;;;;4999871;28;20084;-72
2022/08/23 07:19:16;;;;;;;12.95;10.70;;;19.20;99.90;;;;;;5016582;28;20397;-72
2022/08/23 07:21:42;;;;;;;15.68;11.00;;;19.20;99.90;;;;;;5016932;28;20048;-72
2022/08/23 07:24:08;;;;;;;12.23;10.70;;;19.30;99.90;;;;;;5018807;28;20052;-72
2022/08/23 07:26:35;;;;;;;11.60;10.40;;;19.40;99.90;;;;;;5018553;28;20052;-72
2022/08/23 07:29:05;;;;;;;12.68;10.10;;;19.40;99.90;;;;;;5020095;28;20140;-71
2022/08/23 07:31:34;;;;;;;12.40;9.50;;;19.60;99.90;;;;;;5018479;28;20050;-72
2022/08/23 07:34:02;;;;;;;14.45;10.27;;;19.60;99.90;;;;;;5020364;28;20049;-72
2022/08/23 07:36:29;;;;;;;11.50;9.88;;;19.70;99.90;;;;;;5020461;28;20042;-72
2022/08/23 07:38:56;;;;;;;17.25;9.55;;;19.80;99.90;;;;;;5018364;28;20045;-72
2022/08/23 07:41:24;;;;;;;12.07;8.85;;;19.80;99.90;;;;;;5012709;28;20053;-72
2022/08/23 07:43:50;;;;;;;10.75;8.52;;;19.90;99.90;;;;;;5016897;28;20453;-72
2022/08/23 07:46:16;;;;;;;9.85;8.18;;;19.90;99.90;;;;;;5015958;28;20085;-72
2022/08/23 07:48:42;;;;;;;10.35;7.47;;;20.10;99.90;;;;;;5017947;28;20103;-72
2022/08/23 07:51:12;;;;;;;10.68;7.80;;;20.20;99.90;;;;;;5015726;28;20041;-72
2022/08/23 07:53:39;;;;;;;11.70;7.00;;;20.30;99.90;;;;;;5020753;28;20053;-72
2022/08/23 07:56:06;;;;;;;10.32;7.22;;;20.40;99.90;;;;;;5016090;28;20044;-72
2022/08/23 07:58:32;;;;;;;14.68;8.35;;;20.40;99.90;;;;;;4998282;28;20045;-72
2022/08/23 08:01:17;;;;;;;8.60;7.47;;;20.50;99.90;;;;;;5012839;28;20409;-72
2022/08/23 08:03:46;;;;;;;9.23;7.32;;;20.60;99.90;;;;;;5011888;28;20045;-72
2022/08/23 08:06:28;;;;;;;10.55;7.18;;;20.70;99.90;;;;;;5018651;28;20181;-72
2022/08/23 08:08:56;;;;;;;11.70;7.05;;;20.80;99.90;;;;;;5014573;28;20069;-72
2022/08/23 08:11:25;;;;;;;11.02;6.70;;;20.80;99.90;;;;;;5016490;28;20658;-72
2022/08/23 08:13:51;;;;;;;11.65;6.70;;;20.90;99.90;;;;;;5017570;28;20862;-72
2022/08/23 08:16:36;;;;;;;12.55;6.57;;;21.00;99.90;;;;;;5020106;28;20128;-72
2022/08/23 08:19:06;;;;;;;7.85;6.63;;;21.20;99.90;;;;;;5015858;28;20050;-72
2022/08/23 08:21:32;;;;;;;12.35;6.40;;;21.30;99.90;;;;;;5014018;28;20045;-73
2022/08/23 08:23:59;;;;;;;9.75;5.63;;;21.40;99.90;;;;;;5017433;28;20041;-72
2022/08/23 08:26:26;;;;;;;8.40;5.75;;;21.50;99.90;;;;;;5019056;28;20614;-72
2022/08/23 08:28:55;;;;;;;8.52;5.40;;;21.50;99.90;;;;;;5019652;28;20496;-72
2022/08/23 08:31:21;;;;;;;7.18;5.05;;;21.60;99.90;;;;;;5013714;28;20572;-72
2022/08/23 08:33:47;;;;;;;9.07;5.97;;;21.60;99.90;;;;;;5011504;28;20045;-72
2022/08/23 08:36:45;;;;;;;6.65;5.18;;;21.80;99.90;;;;;;5015164;28;20401;-72
2022/08/23 08:39:13;;;;;;;6.75;4.80;;;21.80;99.90;;;;;;5015856;28;20053;-72
2022/08/23 08:41:47;;;;;;;7.60;4.93;;;21.90;99.90;;;;;;5016437;28;20124;-72
2022/08/23 08:44:45;;;;;;;8.63;5.30;;;22.00;99.90;;;;;;5016282;28;20084;-72
2022/08/23 08:47:17;;;;;;;7.53;5.25;;;22.10;99.90;;;;;;5013789;28;20060;-72
2022/08/23 08:49:51;;;;;;;8.23;5.20;;;22.20;99.90;;;;;;5016750;28;20046;-72
2022/08/23 08:52:25;;;;;;;8.32;4.53;;;22.30;99.90;;;;;;5014421;28;20038;-72
2022/08/23 08:55:05;;;;;;;7.22;4.60;;;22.40;99.90;;;;;;5020444;28;20057;-72
2022/08/23 08:57:40;;;;;;;8.63;5.03;;;22.40;99.90;;;;;;5013471;28;20056;-72
2022/08/23 09:00:35;;;;;;;10.75;4.60;;;22.60;99.90;;;;;;5015802;28;20064;-72
2022/08/23 09:03:08;;;;;;;6.85;4.00;;;22.70;99.90;;;;;;5008552;28;20108;-72
2022/08/23 09:05:38;;;;;;;8.50;4.88;;;22.80;99.90;;;;;;5017678;28;20048;-72
2022/08/23 09:08:38;;;;;;;9.63;3.90;;;23.00;99.90;;;;;;5016476;28;20081;-72
2022/08/23 09:11:29;;;;;;;6.28;3.50;;;23.30;99.90;;;;;;5018348;28;20042;-72
2022/08/23 09:14:01;;;;;;;7.85;4.32;;;23.50;99.90;;;;;;5016525;28;20046;-72
2022/08/23 09:16:45;;;;;;;8.25;3.92;;;23.60;99.90;;;;;;5019505;28;20048;-72
2022/08/23 09:19:11;;;;;;;6.85;4.22;;;23.70;99.90;;;;;;5021800;28;20049;-72
2022/08/23 09:22:00;;;;;;;8.65;3.50;;;23.70;99.90;;;;;;5019078;28;20065;-72
2022/08/23 09:24:27;;;;;;;6.82;4.10;;;23.90;99.90;;;;;;5021728;28;20049;-72
2022/08/23 09:26:53;;;;;;;5.43;3.40;;;24.00;99.90;;;;;;5020916;28;20049;-72
2022/08/23 09:29:25;;;;;;;9.13;3.90;;;24.10;99.90;;;;;;5022274;28;20099;-72
2022/08/23 09:32:04;;;;;;;6.72;3.60;;;24.20;99.90;;;;;;5017235;28;20045;-71
2022/08/23 09:34:36;;;;;;;7.10;3.05;;;24.20;99.90;;;;;;5013186;28;20124;-72
2022/08/23 09:37:22;;;;;;;6.53;3.05;;;24.20;99.90;;;;;;5016156;28;20042;-72
2022/08/23 09:39:52;;;;;;;6.95;2.95;;;24.20;99.90;;;;;;5016397;28;20056;-72
2022/08/23 09:42:31;;;;;;;7.03;3.65;;;24.30;99.90;;;;;;5016700;28;20065;-72
2022/08/23 09:44:58;;;;;;;7.47;3.20;;;24.30;99.90;;;;;;5016669;28;20057;-72
2022/08/23 09:47:40;;;;;;;6.20;2.83;;;24.30;99.90;;;;;;5019809;28;20042;-72
2022/08/23 09:50:24;;;;;;;5.22;3.42;;;24.40;99.90;;;;;;5015532;28;20065;-72
2022/08/23 09:53:06;;;;;;;4.72;3.30;;;24.40;99.90;;;;;;5017975;28;20046;-72
2022/08/23 09:55:40;;;;;;;7.32;3.30;;;24.50;99.90;;;;;;5014512;28;20057;-72
2022/08/23 09:58:17;;;;;;;13.48;3.50;;;24.60;99.90;;;;;;5016308;28;20126;-72
2022/08/23 10:00:44;;;;;;;5.75;3.03;;;24.70;99.90;;;;;;5018913;28;20077;-72
2022/08/23 10:03:18;;;;;;;7.07;3.30;;;24.80;99.90;;;;;;5022196;28;20041;-72
2022/08/23 10:05:49;;;;;;;6.85;2.90;;;24.70;99.90;;;;;;5017601;28;20080;-72
2022/08/23 10:08:35;;;;;;;;;;;24.80;99.90;;;;;;5015973;28;20037;-72
2022/08/23 10:11:28;;;;;;;7.18;2.80;;;24.80;99.90;;;;;;5020575;28;19972;-71
2022/08/23 10:13:54;;;;;;;6.88;3.55;;;25.00;99.90;;;;;;5015205;28;20053;-72
2022/08/23 10:16:23;;;;;;;4.47;3.47;;;25.00;99.90;;;;;;5015166;28;20433;-72
2022/08/23 10:18:52;;;;;;;5.75;3.15;;;25.10;99.90;;;;;;5016755;28;20045;-72
2022/08/23 10:21:38;;;;;;;6.75;3.03;;;25.20;99.90;;;;;;5015335;28;20532;-72
2022/08/23 10:24:18;;;;;;;7.35;3.80;;;25.40;99.90;;;;;;5014656;28;20057;-72
2022/08/23 10:29:35;;;;;;;8.00;3.50;;;25.40;99.90;;;;;;5021714;28;20547;-72
2022/08/23 10:30:24;;;;;;;6.80;3.33;;;25.40;99.90;;;;;;5017494;28;20046;-72
2022/08/23 10:33:06;;;;;;;9.77;2.97;;;25.50;99.90;;;;;;5032082;28;20400;-71
2022/08/23 10:35:48;;;;;;;5.85;3.30;;;25.60;99.90;;;;;;5017023;28;20084;-72
2022/08/23 10:38:29;;;;;;;6.75;2.80;;;25.50;99.90;;;;;;5012636;28;20064;-72
2022/08/23 10:41:13;;;;;;;8.00;2.75;;;25.60;99.90;;;;;;5013411;28;20049;-72
2022/08/23 10:44:17;;;;;;;7.22;2.70;;;25.70;99.90;;;;;;5019927;28;20128;-72
2022/08/23 10:46:55;;;;;;;6.50;2.70;;;25.70;99.90;;;;;;5018017;28;20401;-71
2022/08/23 10:49:22;;;;;;;4.40;2.40;;;25.80;99.90;;;;;;5018321;28;20470;-72
2022/08/23 10:51:50;;;;;;;3.97;1.75;;;25.80;99.90;;;;;;5019896;28;20120;-72
2022/08/23 10:54:33;;;;;;;2.78;1.65;;;25.90;99.90;;;;;;5014592;28;20053;-72
2022/08/23 10:57:00;;;;;;;6.97;2.50;;;25.90;99.90;;;;;;5013908;28;20046;-72
2022/08/23 10:59:28;;;;;;;5.55;2.03;;;25.90;99.90;;;;;;5021233;28;20433;-72
2022/08/23 11:02:18;;;;;;;5.53;1.98;;;26.10;99.90;;;;;;5014567;28;20044;-71
2022/08/23 11:04:52;;;;;;;3.35;1.90;;;26.00;99.90;;;;;;5015304;28;20053;-72
2022/08/23 11:07:26;;;;;;;5.78;2.30;;;26.10;99.90;;;;;;5018299;28;20057;-72
2022/08/23 11:10:15;;;;;;;5.25;2.13;;;26.10;99.90;;;;;;5019362;28;20120;-71
2022/08/23 11:12:58;;;;;;;6.40;2.17;;;26.10;99.90;;;;;;5014610;28;20054;-72
2022/08/23 11:15:44;;;;;;;5.25;2.17;;;26.20;99.90;;;;;;5015276;28;20053;-72
2022/08/23 11:18:32;;;;;;;6.07;2.35;;;26.20;99.90;;;;;;5019926;28;20064;-72
2022/08/23 11:21:04;;;;;;;6.60;2.10;;;26.30;99.90;;;;;;5015345;28;20461;-71
2022/08/23 11:23:41;;;;;;;3.50;2.20;;;26.30;99.90;;;;;;5012862;28;20449;-71
2022/08/23 11:26:35;;;;;;;7.15;2.58;;;26.40;99.90;;;;;;5016365;28;20049;-71
2022/08/23 11:29:06;;;;;;;5.40;2.22;;;26.40;99.90;;;;;;4982941;28;20061;-71
2022/08/23 11:32:09;;;;;;;5.45;2.30;;;26.30;99.90;;;;;;5018298;28;20154;-72
2022/08/23 11:34:49;;;;;;;4.18;2.17;;;26.30;99.90;;;;;;5012138;28;20068;-72
2022/08/23 11:37:18;;;;;;;4.35;1.95;;;26.50;99.90;;;;;;5013936;28;20050;-71
2022/08/23 11:39:59;;;;;;;3.35;1.60;;;26.60;99.90;;;;;;5013342;28;20049;-71
2022/08/23 11:42:47;;;;;;;5.47;2.00;;;26.60;99.90;;;;;;5032849;28;20107;-72
2022/08/23 11:45:43;;;;;;;5.57;2.20;;;26.60;99.90;;;;;;5023050;28;20049;-72
2022/08/23 11:48:09;;;;;;;4.80;1.77;;;26.60;99.90;;;;;;5017449;28;20053;-71
2022/08/23 11:50:49;;;;;;;6.05;2.58;;;26.70;99.90;;;;;;5036342;28;20041;-72
2022/08/23 11:53:30;;;;;;;7.13;2.33;;;26.60;99.90;;;;;;5035618;28;20103;-72
2022/08/23 11:56:28;;;;;;;6.75;2.33;;;26.60;99.90;;;;;;5017574;28;20057;-71
2022/08/23 11:59:33;;;;;;;5.18;2.05;;;26.60;99.90;;;;;;5033262;28;20052;-71
2022/08/23 12:02:30;;;;;;;4.70;2.20;;;26.70;99.90;;;;;;5037732;28;20053;-71
2022/08/23 12:04:59;;;;;;;5.82;2.45;;;26.70;99.90;;;;;;5037880;28;20055;-71
2022/08/23 12:07:47;;;;;;;7.00;2.33;;;26.60;99.90;;;;;;5036868;28;20037;-70
2022/08/23 12:10:42;;;;;;;6.43;2.30;;;26.60;99.90;;;;;;4972245;28;20053;-72
2022/08/23 12:13:20;;;;;;;6.00;2.35;;;26.90;99.90;;;;;;5018271;28;20053;-71
2022/08/23 12:16:21;;;;;;;7.75;2.00;;;26.90;99.50;;;;;;5016742;28;20408;-71
2022/08/23 12:18:52;;;;;;;4.50;2.10;;;26.80;99.90;;;;;;5020387;28;20045;-72
2022/08/23 12:21:55;;;;;;;5.90;2.42;;;26.70;99.80;;;;;;5003869;28;20053;-71
2022/08/23 12:24:39;;;;;;;5.47;2.40;;;26.60;99.90;;;;;;4940151;28;20588;-71
2022/08/23 12:27:31;;;;;;;3.88;2.10;;;26.60;99.90;;;;;;5003617;28;20056;-71
2022/08/23 12:30:04;;;;;;;4.57;2.08;;;26.60;99.90;;;;;;5033545;28;20046;-71
2022/08/23 12:32:32;;;;;;;6.78;2.33;;;26.60;99.90;;;;;;5035253;28;20053;-71
2022/08/23 12:35:25;;;;;;;5.50;2.13;;;26.60;99.90;;;;;;5034533;28;20037;-71
2022/08/23 12:37:55;;;;;;;4.28;2.30;;;26.50;99.90;;;;;;5035874;28;20045;-71
2022/08/23 12:40:28;;;;;;;5.50;2.03;;;26.50;99.80;;;;;;5034818;28;20060;-71
2022/08/23 12:43:22;;;;;;;5.82;2.10;;;26.60;99.90;;;;;;5035725;28;20335;-71
2022/08/23 12:45:52;;;;;;;7.05;2.20;;;26.60;99.90;;;;;;5043347;28;20044;-71
2022/08/23 12:48:21;;;;;;;5.25;1.80;;;26.70;99.60;;;;;;5018422;28;20044;-71
2022/08/23 12:51:10;;;;;;;4.43;2.17;;;26.70;99.20;;;;;;5021043;28;20132;-72
2022/08/23 12:53:39;;;;;;;2.60;1.50;;;26.90;99.90;;;;;;5020078;28;20049;-71
2022/08/23 12:56:18;;;;;;;6.03;2.05;;;27.00;99.90;;;;;;5021569;28;20148;-72
2022/08/23 12:58:50;;;;;;;4.78;2.17;;;27.10;98.50;;;;;;5037872;28;20103;-72
2022/08/23 13:01:24;;;;;;;5.25;1.88;;;27.50;96.70;;;;;;5020413;28;20393;-72
2022/08/23 13:04:02;;;;;;;4.13;1.80;;;27.60;96.00;;;;;;5038875;28;20045;-71
2022/08/23 13:06:43;;;;;;;9.98;2.40;;;27.60;96.20;;;;;;5022251;28;20128;-71
2022/08/23 13:09:20;;;;;;;4.28;2.08;;;27.70;94.50;;;;;;5019499;28;20049;-72